sensor_id;sensor_type;location;lat;lon;timestamp;pressure;altitude;pressure_sealevel;temperature;humidity
58018;BME280;43810;50.860;19.226;2023-04-15T00:01:23;97355.75;;;10.62;84.94
58018;BME280;43810;50.860;19.226;2023-04-15T00:03:51;97357.56;;;10.58;85.54
58018;BME280;43810;50.860;19.226;2023-04-15T00:06:17;97358.75;;;10.60;85.41
58018;BME280;43810;50.860;19.226;2023-04-15T00:08:44;97353.03;;;10.58;85.52
58018;BME280;43810;50.860;19.226;2023-04-15T00:11:11;97361.38;;;10.57;85.25
58018;BME280;43810;50.860;19.226;2023-04-15T00:13:38;97356.81;;;10.57;85.61
58018;BME280;43810;50.860;19.226;2023-04-15T00:16:05;97362.88;;;10.58;85.45
58018;BME280;43810;50.860;19.226;2023-04-15T00:18:31;97352.09;;;10.47;85.68
58018;BME280;43810;50.860;19.226;2023-04-15T00:20:58;97344.56;;;10.49;85.85
58018;BME280;43810;50.860;19.226;2023-04-15T00:23:24;97350.97;;;10.48;85.62
58018;BME280;43810;50.860;19.226;2023-04-15T00:25:50;97352.41;;;10.42;86.15
58018;BME280;43810;50.860;19.226;2023-04-15T00:28:16;97355.06;;;10.42;86.41
58018;BME280;43810;50.860;19.226;2023-04-15T00:30:43;97359.28;;;10.47;86.17
58018;BME280;43810;50.860;19.226;2023-04-15T00:33:09;97364.66;;;10.50;86.00
58018;BME280;43810;50.860;19.226;2023-04-15T00:35:36;97354.38;;;10.45;85.99
58018;BME280;43810;50.860;19.226;2023-04-15T00:38:04;97367.59;;;10.41;86.21
58018;BME280;43810;50.860;19.226;2023-04-15T00:40:30;97355.38;;;10.37;86.57
58018;BME280;43810;50.860;19.226;2023-04-15T00:42:56;97357.78;;;10.46;86.40
58018;BME280;43810;50.860;19.226;2023-04-15T00:45:22;97358.78;;;10.37;86.66
58018;BME280;43810;50.860;19.226;2023-04-15T00:47:48;97354.94;;;10.35;86.91
58018;BME280;43810;50.860;19.226;2023-04-15T00:50:15;97353.81;;;10.36;86.93
58018;BME280;43810;50.860;19.226;2023-04-15T00:52:41;97366.47;;;10.42;86.82
58018;BME280;43810;50.860;19.226;2023-04-15T00:55:08;97361.09;;;10.39;86.89
58018;BME280;43810;50.860;19.226;2023-04-15T00:57:34;97364.50;;;10.39;86.89
58018;BME280;43810;50.860;19.226;2023-04-15T01:00:01;97372.41;;;10.36;87.09
58018;BME280;43810;50.860;19.226;2023-04-15T01:02:26;97368.13;;;10.28;87.33
58018;BME280;43810;50.860;19.226;2023-04-15T01:04:53;97367.75;;;10.29;87.29
58018;BME280;43810;50.860;19.226;2023-04-15T01:07:20;97370.66;;;10.21;87.71
58018;BME280;43810;50.860;19.226;2023-04-15T01:09:46;97360.06;;;10.21;87.81
58018;BME280;43810;50.860;19.226;2023-04-15T01:12:13;97363.81;;;10.20;88.02
58018;BME280;43810;50.860;19.226;2023-04-15T01:14:41;97361.44;;;10.15;88.26
58018;BME280;43810;50.860;19.226;2023-04-15T01:17:06;97369.41;;;10.15;88.36
58018;BME280;43810;50.860;19.226;2023-04-15T01:19:35;97384.91;;;10.13;88.42
58018;BME280;43810;50.860;19.226;2023-04-15T01:22:02;97381.56;;;10.16;88.51
58018;BME280;43810;50.860;19.226;2023-04-15T01:24:29;97381.38;;;10.28;88.42
58018;BME280;43810;50.860;19.226;2023-04-15T01:26:56;97376.84;;;10.28;88.34
58018;BME280;43810;50.860;19.226;2023-04-15T01:29:22;97368.94;;;10.32;88.23
58018;BME280;43810;50.860;19.226;2023-04-15T01:31:52;97377.84;;;10.43;87.53
58018;BME280;43810;50.860;19.226;2023-04-15T01:34:18;97372.13;;;10.41;87.67
58018;BME280;43810;50.860;19.226;2023-04-15T01:36:44;97372.47;;;10.39;87.56
58018;BME280;43810;50.860;19.226;2023-04-15T01:39:11;97377.69;;;10.32;87.93
58018;BME280;43810;50.860;19.226;2023-04-15T01:41:37;97371.53;;;10.28;87.97
58018;BME280;43810;50.860;19.226;2023-04-15T01:44:03;97380.69;;;10.31;87.75
58018;BME280;43810;50.860;19.226;2023-04-15T01:46:29;97370.88;;;10.35;88.12
58018;BME280;43810;50.860;19.226;2023-04-15T01:48:55;97379.25;;;10.37;87.76
58018;BME280;43810;50.860;19.226;2023-04-15T01:51:21;97380.09;;;10.41;87.96
58018;BME280;43810;50.860;19.226;2023-04-15T01:53:47;97380.38;;;10.36;87.81
58018;BME280;43810;50.860;19.226;2023-04-15T01:56:13;97392.53;;;10.37;87.88
58018;BME280;43810;50.860;19.226;2023-04-15T01:58:39;97384.97;;;10.39;88.00
58018;BME280;43810;50.860;19.226;2023-04-15T02:01:05;97393.38;;;10.41;87.79
58018;BME280;43810;50.860;19.226;2023-04-15T02:03:31;97391.81;;;10.40;87.85
58018;BME280;43810;50.860;19.226;2023-04-15T02:05:57;97391.41;;;10.38;87.80
58018;BME280;43810;50.860;19.226;2023-04-15T02:08:23;97403.09;;;10.33;87.75
58018;BME280;43810;50.860;19.226;2023-04-15T02:10:49;97410.41;;;10.40;87.69
58018;BME280;43810;50.860;19.226;2023-04-15T02:13:15;97404.69;;;10.38;87.77
58018;BME280;43810;50.860;19.226;2023-04-15T02:15:48;97404.25;;;10.36;87.76
58018;BME280;43810;50.860;19.226;2023-04-15T02:18:15;97410.06;;;10.41;87.50
58018;BME280;43810;50.860;19.226;2023-04-15T02:20:41;97398.16;;;10.32;88.15
58018;BME280;43810;50.860;19.226;2023-04-15T02:23:09;97396.69;;;10.34;88.15
58018;BME280;43810;50.860;19.226;2023-04-15T02:25:35;97399.38;;;10.38;87.68
58018;BME280;43810;50.860;19.226;2023-04-15T02:28:02;97419.59;;;10.46;87.72
58018;BME280;43810;50.860;19.226;2023-04-15T02:30:27;97406.81;;;10.52;87.24
58018;BME280;43810;50.860;19.226;2023-04-15T02:32:53;97412.22;;;10.59;86.83
58018;BME280;43810;50.860;19.226;2023-04-15T02:35:20;97420.38;;;10.47;87.54
58018;BME280;43810;50.860;19.226;2023-04-15T02:37:46;97429.53;;;10.49;87.10
58018;BME280;43810;50.860;19.226;2023-04-15T02:40:12;97424.75;;;10.35;87.88
58018;BME280;43810;50.860;19.226;2023-04-15T02:42:39;97422.50;;;10.37;87.50
58018;BME280;43810;50.860;19.226;2023-04-15T02:45:06;97419.22;;;10.44;87.32
58018;BME280;43810;50.860;19.226;2023-04-15T02:47:33;97418.53;;;10.51;87.19
58018;BME280;43810;50.860;19.226;2023-04-15T02:50:04;97423.50;;;10.52;87.28
58018;BME280;43810;50.860;19.226;2023-04-15T02:52:30;97424.22;;;10.49;87.02
58018;BME280;43810;50.860;19.226;2023-04-15T02:54:56;97416.94;;;10.46;87.25
58018;BME280;43810;50.860;19.226;2023-04-15T02:57:26;97422.97;;;10.43;87.34
58018;BME280;43810;50.860;19.226;2023-04-15T02:59:53;97430.63;;;10.48;87.12
58018;BME280;43810;50.860;19.226;2023-04-15T03:02:19;97420.75;;;10.45;87.17
58018;BME280;43810;50.860;19.226;2023-04-15T03:04:44;97425.88;;;10.34;87.22
58018;BME280;43810;50.860;19.226;2023-04-15T03:07:10;97428.06;;;10.29;87.80
58018;BME280;43810;50.860;19.226;2023-04-15T03:09:36;97435.59;;;10.27;87.90
58018;BME280;43810;50.860;19.226;2023-04-15T03:12:05;97439.91;;;10.35;87.65
58018;BME280;43810;50.860;19.226;2023-04-15T03:14:32;97437.97;;;10.32;87.35
58018;BME280;43810;50.860;19.226;2023-04-15T03:16:58;97436.53;;;10.38;87.44
58018;BME280;43810;50.860;19.226;2023-04-15T03:19:24;97439.03;;;10.27;87.59
58018;BME280;43810;50.860;19.226;2023-04-15T03:21:50;97432.41;;;10.18;88.12
58018;BME280;43810;50.860;19.226;2023-04-15T03:24:17;97433.19;;;10.18;87.85
58018;BME280;43810;50.860;19.226;2023-04-15T03:26:43;97444.97;;;10.21;88.13
58018;BME280;43810;50.860;19.226;2023-04-15T03:29:08;97436.72;;;10.26;87.68
58018;BME280;43810;50.860;19.226;2023-04-15T03:31:34;97434.28;;;10.17;87.52
58018;BME280;43810;50.860;19.226;2023-04-15T03:34:00;97438.47;;;10.18;87.56
58018;BME280;43810;50.860;19.226;2023-04-15T03:36:28;97447.63;;;10.21;87.31
58018;BME280;43810;50.860;19.226;2023-04-15T03:38:57;97437.88;;;10.05;87.85
58018;BME280;43810;50.860;19.226;2023-04-15T03:41:23;97442.91;;;10.11;87.59
58018;BME280;43810;50.860;19.226;2023-04-15T03:43:49;97446.34;;;10.11;87.55
58018;BME280;43810;50.860;19.226;2023-04-15T03:46:17;97440.94;;;10.07;87.92
58018;BME280;43810;50.860;19.226;2023-04-15T03:48:43;97449.53;;;10.01;87.73
58018;BME280;43810;50.860;19.226;2023-04-15T03:51:09;97464.00;;;10.03;87.99
58018;BME280;43810;50.860;19.226;2023-04-15T03:53:35;97457.69;;;10.12;87.50
58018;BME280;43810;50.860;19.226;2023-04-15T03:56:01;97465.38;;;10.17;87.23
58018;BME280;43810;50.860;19.226;2023-04-15T03:58:27;97462.94;;;10.08;87.08
58018;BME280;43810;50.860;19.226;2023-04-15T04:00:53;97466.38;;;10.08;86.99
58018;BME280;43810;50.860;19.226;2023-04-15T04:03:19;97459.81;;;10.02;87.25
58018;BME280;43810;50.860;19.226;2023-04-15T04:05:45;97466.53;;;9.96;87.20
58018;BME280;43810;50.860;19.226;2023-04-15T04:08:11;97463.03;;;9.92;87.41
58018;BME280;43810;50.860;19.226;2023-04-15T04:10:41;97464.91;;;9.92;87.36
58018;BME280;43810;50.860;19.226;2023-04-15T04:13:07;97468.53;;;10.03;86.71
58018;BME280;43810;50.860;19.226;2023-04-15T04:15:33;97470.38;;;9.99;86.42
58018;BME280;43810;50.860;19.226;2023-04-15T04:17:59;97470.28;;;9.95;86.45
58018;BME280;43810;50.860;19.226;2023-04-15T04:20:25;97477.06;;;9.93;86.54
58018;BME280;43810;50.860;19.226;2023-04-15T04:22:51;97475.78;;;10.06;86.30
58018;BME280;43810;50.860;19.226;2023-04-15T04:25:16;97479.50;;;10.01;85.99
58018;BME280;43810;50.860;19.226;2023-04-15T04:27:42;97476.78;;;9.98;86.14
58018;BME280;43810;50.860;19.226;2023-04-15T04:30:10;97476.84;;;10.01;86.09
58018;BME280;43810;50.860;19.226;2023-04-15T04:32:36;97479.84;;;10.00;86.01
58018;BME280;43810;50.860;19.226;2023-04-15T04:35:03;97481.66;;;9.96;86.07
58018;BME280;43810;50.860;19.226;2023-04-15T04:37:29;97475.59;;;9.95;86.21
58018;BME280;43810;50.860;19.226;2023-04-15T04:39:55;97485.56;;;10.02;86.18
58018;BME280;43810;50.860;19.226;2023-04-15T04:42:21;97487.09;;;10.03;85.84
58018;BME280;43810;50.860;19.226;2023-04-15T04:44:47;97486.13;;;10.11;85.78
58018;BME280;43810;50.860;19.226;2023-04-15T04:47:13;97488.41;;;10.13;85.74
58018;BME280;43810;50.860;19.226;2023-04-15T04:49:39;97495.00;;;10.19;85.87
58018;BME280;43810;50.860;19.226;2023-04-15T04:52:05;97495.19;;;10.29;85.61
58018;BME280;43810;50.860;19.226;2023-04-15T04:54:32;97501.38;;;10.37;85.25
58018;BME280;43810;50.860;19.226;2023-04-15T04:56:58;97502.91;;;10.38;85.21
58018;BME280;43810;50.860;19.226;2023-04-15T04:59:24;97512.19;;;10.48;85.17
58018;BME280;43810;50.860;19.226;2023-04-15T05:01:50;97512.69;;;10.53;84.52
58018;BME280;43810;50.860;19.226;2023-04-15T05:04:16;97506.19;;;10.51;84.50
58018;BME280;43810;50.860;19.226;2023-04-15T05:06:41;97514.69;;;10.60;83.39
58018;BME280;43810;50.860;19.226;2023-04-15T05:09:07;97513.13;;;10.59;83.32
58018;BME280;43810;50.860;19.226;2023-04-15T05:11:33;97526.97;;;10.68;83.22
58018;BME280;43810;50.860;19.226;2023-04-15T05:13:59;97526.66;;;10.73;83.00
58018;BME280;43810;50.860;19.226;2023-04-15T05:16:26;97536.53;;;10.72;83.26
58018;BME280;43810;50.860;19.226;2023-04-15T05:18:52;97530.09;;;10.73;82.09
58018;BME280;43810;50.860;19.226;2023-04-15T05:21:19;97537.00;;;10.78;82.03
58018;BME280;43810;50.860;19.226;2023-04-15T05:23:45;97542.53;;;10.69;82.57
58018;BME280;43810;50.860;19.226;2023-04-15T05:26:11;97538.19;;;10.80;82.59
58018;BME280;43810;50.860;19.226;2023-04-15T05:28:37;97531.28;;;10.99;82.53
58018;BME280;43810;50.860;19.226;2023-04-15T05:31:03;97518.16;;;11.09;82.22
58018;BME280;43810;50.860;19.226;2023-04-15T05:33:29;97530.09;;;11.19;81.88
58018;BME280;43810;50.860;19.226;2023-04-15T05:35:55;97529.25;;;11.15;81.97
58018;BME280;43810;50.860;19.226;2023-04-15T05:38:21;97542.06;;;11.32;81.68
58018;BME280;43810;50.860;19.226;2023-04-15T05:40:47;97538.97;;;11.27;81.49
58018;BME280;43810;50.860;19.226;2023-04-15T05:43:13;97539.78;;;11.08;81.57
58018;BME280;43810;50.860;19.226;2023-04-15T05:45:39;97533.75;;;11.11;81.56
58018;BME280;43810;50.860;19.226;2023-04-15T05:48:05;97549.56;;;11.04;81.98
58018;BME280;43810;50.860;19.226;2023-04-15T05:50:31;97545.22;;;11.15;81.47
58018;BME280;43810;50.860;19.226;2023-04-15T05:52:57;97559.63;;;11.37;80.83
58018;BME280;43810;50.860;19.226;2023-04-15T05:55:23;97555.69;;;11.53;79.58
58018;BME280;43810;50.860;19.226;2023-04-15T05:57:49;97554.34;;;11.67;79.15
58018;BME280;43810;50.860;19.226;2023-04-15T06:00:15;97560.13;;;11.72;78.54
58018;BME280;43810;50.860;19.226;2023-04-15T06:02:41;97566.38;;;11.83;77.78
58018;BME280;43810;50.860;19.226;2023-04-15T06:05:07;97574.72;;;11.82;76.98
58018;BME280;43810;50.860;19.226;2023-04-15T06:07:35;97579.00;;;11.90;76.30
58018;BME280;43810;50.860;19.226;2023-04-15T06:10:04;97575.75;;;12.04;75.39
58018;BME280;43810;50.860;19.226;2023-04-15T06:12:31;97578.91;;;12.13;74.10
58018;BME280;43810;50.860;19.226;2023-04-15T06:14:56;97570.22;;;12.19;71.95
58018;BME280;43810;50.860;19.226;2023-04-15T06:17:23;97572.44;;;12.14;72.01
58018;BME280;43810;50.860;19.226;2023-04-15T06:19:48;97568.53;;;12.04;72.86
58018;BME280;43810;50.860;19.226;2023-04-15T06:22:21;97567.97;;;11.92;73.03
58018;BME280;43810;50.860;19.226;2023-04-15T06:24:47;97572.94;;;11.93;73.31
58018;BME280;43810;50.860;19.226;2023-04-15T06:27:15;97570.56;;;11.84;73.10
58018;BME280;43810;50.860;19.226;2023-04-15T06:29:41;97567.34;;;11.72;74.16
58018;BME280;43810;50.860;19.226;2023-04-15T06:32:07;97573.81;;;11.74;74.06
58018;BME280;43810;50.860;19.226;2023-04-15T06:34:33;97579.63;;;11.80;73.89
58018;BME280;43810;50.860;19.226;2023-04-15T06:36:59;97578.94;;;11.86;71.47
58018;BME280;43810;50.860;19.226;2023-04-15T06:39:25;97591.13;;;11.87;72.22
58018;BME280;43810;50.860;19.226;2023-04-15T06:41:52;97588.44;;;11.87;71.67
58018;BME280;43810;50.860;19.226;2023-04-15T06:44:17;97586.25;;;11.93;71.92
58018;BME280;43810;50.860;19.226;2023-04-15T06:46:43;97590.63;;;12.08;69.86
58018;BME280;43810;50.860;19.226;2023-04-15T06:49:09;97597.78;;;12.31;68.18
58018;BME280;43810;50.860;19.226;2023-04-15T06:51:36;97600.56;;;12.45;67.73
58018;BME280;43810;50.860;19.226;2023-04-15T06:54:02;97615.28;;;12.65;68.24
58018;BME280;43810;50.860;19.226;2023-04-15T06:56:31;97599.50;;;12.83;65.14
58018;BME280;43810;50.860;19.226;2023-04-15T06:58:57;97604.78;;;12.79;64.00
58018;BME280;43810;50.860;19.226;2023-04-15T07:01:23;97606.59;;;12.72;66.07
58018;BME280;43810;50.860;19.226;2023-04-15T07:03:49;97614.66;;;12.75;65.49
58018;BME280;43810;50.860;19.226;2023-04-15T07:06:15;97621.19;;;12.81;66.04
58018;BME280;43810;50.860;19.226;2023-04-15T07:08:41;97625.53;;;12.96;65.25
58018;BME280;43810;50.860;19.226;2023-04-15T07:11:07;97633.47;;;12.93;64.68
58018;BME280;43810;50.860;19.226;2023-04-15T07:13:35;97632.41;;;12.98;65.14
58018;BME280;43810;50.860;19.226;2023-04-15T07:16:01;97629.13;;;13.15;62.41
58018;BME280;43810;50.860;19.226;2023-04-15T07:18:27;97629.53;;;13.17;63.89
58018;BME280;43810;50.860;19.226;2023-04-15T07:20:53;97631.81;;;13.18;62.39
58018;BME280;43810;50.860;19.226;2023-04-15T07:23:19;97643.56;;;13.10;63.12
58018;BME280;43810;50.860;19.226;2023-04-15T07:25:46;97651.97;;;13.16;62.76
58018;BME280;43810;50.860;19.226;2023-04-15T07:28:12;97646.66;;;13.16;63.68
58018;BME280;43810;50.860;19.226;2023-04-15T07:30:37;97647.66;;;13.41;62.06
58018;BME280;43810;50.860;19.226;2023-04-15T07:33:03;97635.47;;;13.47;61.76
58018;BME280;43810;50.860;19.226;2023-04-15T07:35:30;97639.41;;;13.60;60.08
58018;BME280;43810;50.860;19.226;2023-04-15T07:37:55;97636.59;;;13.43;59.29
58018;BME280;43810;50.860;19.226;2023-04-15T07:40:22;97632.38;;;13.38;62.82
58018;BME280;43810;50.860;19.226;2023-04-15T07:42:48;97642.75;;;13.50;60.23
58018;BME280;43810;50.860;19.226;2023-04-15T07:45:14;97644.69;;;13.53;61.55
58018;BME280;43810;50.860;19.226;2023-04-15T07:47:40;97634.72;;;13.47;61.76
58018;BME280;43810;50.860;19.226;2023-04-15T07:50:08;97650.34;;;13.48;62.04
58018;BME280;43810;50.860;19.226;2023-04-15T07:52:35;97647.78;;;13.59;60.09
58018;BME280;43810;50.860;19.226;2023-04-15T07:55:05;97651.69;;;13.68;59.54
58018;BME280;43810;50.860;19.226;2023-04-15T07:57:33;97649.91;;;13.90;57.86
58018;BME280;43810;50.860;19.226;2023-04-15T08:00:00;97641.94;;;13.97;58.38
58018;BME280;43810;50.860;19.226;2023-04-15T08:02:28;97645.78;;;14.00;58.22
58018;BME280;43810;50.860;19.226;2023-04-15T08:04:54;97637.34;;;13.94;57.45
58018;BME280;43810;50.860;19.226;2023-04-15T08:07:20;97634.63;;;13.87;59.60
58018;BME280;43810;50.860;19.226;2023-04-15T08:09:46;97640.56;;;14.18;57.45
58018;BME280;43810;50.860;19.226;2023-04-15T08:12:11;97648.38;;;13.93;57.72
58018;BME280;43810;50.860;19.226;2023-04-15T08:14:38;97641.38;;;14.25;56.92
58018;BME280;43810;50.860;19.226;2023-04-15T08:17:04;97642.56;;;14.35;57.78
58018;BME280;43810;50.860;19.226;2023-04-15T08:19:30;97644.66;;;14.08;58.39
58018;BME280;43810;50.860;19.226;2023-04-15T08:21:56;97649.44;;;14.39;56.78
58018;BME280;43810;50.860;19.226;2023-04-15T08:24:23;97635.47;;;14.78;57.83
58018;BME280;43810;50.860;19.226;2023-04-15T08:26:51;97645.47;;;15.34;58.13
58018;BME280;43810;50.860;19.226;2023-04-15T08:29:17;97641.69;;;15.46;55.00
58018;BME280;43810;50.860;19.226;2023-04-15T08:31:43;97639.41;;;15.62;54.04
58018;BME280;43810;50.860;19.226;2023-04-15T08:34:10;97639.78;;;15.75;53.81
58018;BME280;43810;50.860;19.226;2023-04-15T08:36:36;97643.16;;;16.11;52.26
58018;BME280;43810;50.860;19.226;2023-04-15T08:39:02;97644.69;;;16.08;52.50
58018;BME280;43810;50.860;19.226;2023-04-15T08:41:37;97639.75;;;16.00;53.71
58018;BME280;43810;50.860;19.226;2023-04-15T08:44:05;97634.69;;;16.34;53.24
58018;BME280;43810;50.860;19.226;2023-04-15T08:46:31;97635.53;;;15.95;51.39
58018;BME280;43810;50.860;19.226;2023-04-15T08:49:03;97633.63;;;15.81;54.94
58018;BME280;43810;50.860;19.226;2023-04-15T08:51:30;97642.44;;;15.96;53.94
58018;BME280;43810;50.860;19.226;2023-04-15T08:53:57;97640.81;;;16.27;51.19
58018;BME280;43810;50.860;19.226;2023-04-15T08:56:25;97643.19;;;15.90;52.09
58018;BME280;43810;50.860;19.226;2023-04-15T08:58:52;97640.94;;;15.49;51.34
58018;BME280;43810;50.860;19.226;2023-04-15T09:01:18;97653.16;;;15.57;51.03
58018;BME280;43810;50.860;19.226;2023-04-15T09:03:47;97648.56;;;15.47;50.89
58018;BME280;43810;50.860;19.226;2023-04-15T09:06:18;97648.97;;;15.42;53.43
58018;BME280;43810;50.860;19.226;2023-04-15T09:08:44;97649.72;;;15.71;51.79
58018;BME280;43810;50.860;19.226;2023-04-15T09:11:10;97648.94;;;15.92;51.14
58018;BME280;43810;50.860;19.226;2023-04-15T09:13:36;97655.38;;;16.19;50.51
58018;BME280;43810;50.860;19.226;2023-04-15T09:16:06;97648.16;;;15.91;52.77
58018;BME280;43810;50.860;19.226;2023-04-15T09:18:37;97648.91;;;16.06;50.55
58018;BME280;43810;50.860;19.226;2023-04-15T09:21:15;97647.72;;;16.21;50.57
58018;BME280;43810;50.860;19.226;2023-04-15T09:24:02;97655.34;;;16.26;51.97
58018;BME280;43810;50.860;19.226;2023-04-15T09:26:36;97652.00;;;15.87;50.66
58018;BME280;43810;50.860;19.226;2023-04-15T09:29:09;97647.34;;;16.15;49.15
58018;BME280;43810;50.860;19.226;2023-04-15T09:31:40;97648.41;;;16.46;50.15
58018;BME280;43810;50.860;19.226;2023-04-15T09:34:07;97649.16;;;16.58;49.09
58018;BME280;43810;50.860;19.226;2023-04-15T09:39:11;97637.63;;;16.64;48.98
58018;BME280;43810;50.860;19.226;2023-04-15T09:41:36;97644.97;;;16.39;49.34
58018;BME280;43810;50.860;19.226;2023-04-15T09:44:03;97645.50;;;15.38;50.13
58018;BME280;43810;50.860;19.226;2023-04-15T09:46:45;97643.56;;;15.13;50.71
58018;BME280;43810;50.860;19.226;2023-04-15T09:49:11;97645.34;;;14.67;53.63
58018;BME280;43810;50.860;19.226;2023-04-15T09:51:38;97651.00;;;14.44;52.86
58018;BME280;43810;50.860;19.226;2023-04-15T09:54:04;97650.66;;;14.56;54.84
58018;BME280;43810;50.860;19.226;2023-04-15T09:56:37;97639.50;;;14.36;50.19
58018;BME280;43810;50.860;19.226;2023-04-15T09:59:09;97639.50;;;14.36;52.94
58018;BME280;43810;50.860;19.226;2023-04-15T10:01:35;97640.84;;;14.92;53.18
58018;BME280;43810;50.860;19.226;2023-04-15T10:04:03;97648.19;;;15.59;51.39
58018;BME280;43810;50.860;19.226;2023-04-15T10:06:29;97653.44;;;16.30;48.26
58018;BME280;43810;50.860;19.226;2023-04-15T10:08:59;97648.13;;;16.12;47.55
58018;BME280;43810;50.860;19.226;2023-04-15T10:11:28;97650.06;;;16.01;48.43
58018;BME280;43810;50.860;19.226;2023-04-15T10:13:56;97650.03;;;16.19;48.67
58018;BME280;43810;50.860;19.226;2023-04-15T10:16:26;97650.72;;;16.37;50.11
58018;BME280;43810;50.860;19.226;2023-04-15T10:18:56;97647.59;;;16.64;47.90
58018;BME280;43810;50.860;19.226;2023-04-15T10:21:23;97646.53;;;17.16;47.12
58018;BME280;43810;50.860;19.226;2023-04-15T10:23:49;97650.13;;;17.51;46.58
58018;BME280;43810;50.860;19.226;2023-04-15T10:26:16;97647.34;;;17.61;45.99
58018;BME280;43810;50.860;19.226;2023-04-15T10:28:45;97647.03;;;17.56;43.21
58018;BME280;43810;50.860;19.226;2023-04-15T10:31:14;97647.28;;;17.24;44.47
58018;BME280;43810;50.860;19.226;2023-04-15T10:33:42;97653.13;;;16.07;45.39
58018;BME280;43810;50.860;19.226;2023-04-15T10:36:09;97646.28;;;15.56;48.96
58018;BME280;43810;50.860;19.226;2023-04-15T10:38:37;97644.38;;;15.46;46.23
58018;BME280;43810;50.860;19.226;2023-04-15T10:41:24;97642.47;;;15.54;47.34
58018;BME280;43810;50.860;19.226;2023-04-15T10:43:53;97650.88;;;15.56;45.51
58018;BME280;43810;50.860;19.226;2023-04-15T10:49:12;97653.53;;;15.70;49.21
58018;BME280;43810;50.860;19.226;2023-04-15T10:51:44;97645.09;;;15.96;47.31
58018;BME280;43810;50.860;19.226;2023-04-15T10:54:32;97649.75;;;15.64;48.39
58018;BME280;43810;50.860;19.226;2023-04-15T11:02:55;97652.00;;;15.55;49.21
58018;BME280;43810;50.860;19.226;2023-04-15T11:05:47;97654.25;;;15.13;51.19
58018;BME280;43810;50.860;19.226;2023-04-15T11:08:09;97652.34;;;15.07;48.45
58018;BME280;43810;50.860;19.226;2023-04-15T11:13:14;97653.03;;;14.79;49.56
58018;BME280;43810;50.860;19.226;2023-04-15T11:15:43;97649.09;;;14.52;53.02
58018;BME280;43810;50.860;19.226;2023-04-15T11:20:51;97657.59;;;14.71;48.95
58018;BME280;43810;50.860;19.226;2023-04-15T11:23:36;97650.34;;;14.75;51.12
58018;BME280;43810;50.860;19.226;2023-04-15T11:26:08;97650.00;;;14.91;49.24
58018;BME280;43810;50.860;19.226;2023-04-15T11:28:37;97655.00;;;15.00;49.45
58018;BME280;43810;50.860;19.226;2023-04-15T11:33:46;97660.03;;;15.30;49.88
58018;BME280;43810;50.860;19.226;2023-04-15T11:36:14;97670.34;;;15.35;49.90
58018;BME280;43810;50.860;19.226;2023-04-15T11:38:42;97662.66;;;15.16;51.70
58018;BME280;43810;50.860;19.226;2023-04-15T11:41:09;97669.91;;;15.08;48.97
58018;BME280;43810;50.860;19.226;2023-04-15T11:43:35;97664.91;;;14.99;49.40
58018;BME280;43810;50.860;19.226;2023-04-15T11:46:01;97660.34;;;15.10;50.84
58018;BME280;43810;50.860;19.226;2023-04-15T11:48:30;97664.19;;;15.31;49.26
58018;BME280;43810;50.860;19.226;2023-04-15T11:51:02;97663.09;;;15.42;48.65
58018;BME280;43810;50.860;19.226;2023-04-15T11:53:45;97663.88;;;15.71;49.75
58018;BME280;43810;50.860;19.226;2023-04-15T11:56:18;97665.41;;;15.79;48.75
58018;BME280;43810;50.860;19.226;2023-04-15T11:58:45;97670.00;;;15.72;48.35
58018;BME280;43810;50.860;19.226;2023-04-15T12:01:12;97671.13;;;15.67;47.68
58018;BME280;43810;50.860;19.226;2023-04-15T12:06:20;97671.44;;;15.20;50.83
58018;BME280;43810;50.860;19.226;2023-04-15T12:08:59;97679.47;;;15.05;49.87
58018;BME280;43810;50.860;19.226;2023-04-15T12:13:53;97682.47;;;14.90;49.30
58018;BME280;43810;50.860;19.226;2023-04-15T12:16:20;97678.22;;;14.74;51.24
58018;BME280;43810;50.860;19.226;2023-04-15T12:18:54;97683.47;;;14.46;52.13
58018;BME280;43810;50.860;19.226;2023-04-15T12:21:32;97692.25;;;14.47;51.77
58018;BME280;43810;50.860;19.226;2023-04-15T12:24:02;97691.16;;;14.58;51.28
58018;BME280;43810;50.860;19.226;2023-04-15T12:26:35;97691.94;;;14.73;51.63
58018;BME280;43810;50.860;19.226;2023-04-15T12:29:04;97692.72;;;14.70;51.20
58018;BME280;43810;50.860;19.226;2023-04-15T12:31:30;97687.47;;;14.98;50.44
58018;BME280;43810;50.860;19.226;2023-04-15T12:33:57;97691.25;;;14.90;49.89
58018;BME280;43810;50.860;19.226;2023-04-15T12:36:23;97689.06;;;15.17;48.87
58018;BME280;43810;50.860;19.226;2023-04-15T12:38:49;97685.56;;;15.09;51.53
58018;BME280;43810;50.860;19.226;2023-04-15T12:41:15;97687.88;;;15.11;51.87
58018;BME280;43810;50.860;19.226;2023-04-15T12:43:43;97687.50;;;15.12;54.70
58018;BME280;43810;50.860;19.226;2023-04-15T12:46:13;97684.53;;;15.53;52.55
58018;BME280;43810;50.860;19.226;2023-04-15T12:48:40;97685.28;;;15.71;53.20
58018;BME280;43810;50.860;19.226;2023-04-15T12:51:06;97690.59;;;15.36;55.29
58018;BME280;43810;50.860;19.226;2023-04-15T12:53:31;97695.16;;;15.07;56.54
58018;BME280;43810;50.860;19.226;2023-04-15T12:56:00;97694.34;;;14.92;57.35
58018;BME280;43810;50.860;19.226;2023-04-15T12:58:28;97692.81;;;14.98;57.32
58018;BME280;43810;50.860;19.226;2023-04-15T13:00:54;97701.28;;;15.14;55.89
58018;BME280;43810;50.860;19.226;2023-04-15T13:03:21;97699.75;;;15.21;54.90
58018;BME280;43810;50.860;19.226;2023-04-15T13:05:48;97703.97;;;15.32;55.46
58018;BME280;43810;50.860;19.226;2023-04-15T13:08:13;97704.03;;;15.71;56.01
58018;BME280;43810;50.860;19.226;2023-04-15T13:10:40;97699.81;;;15.95;54.03
58018;BME280;43810;50.860;19.226;2023-04-15T13:13:07;97708.91;;;16.47;52.72
58018;BME280;43810;50.860;19.226;2023-04-15T13:15:33;97711.03;;;17.02;50.40